Time;durP1;ratioP1;P1;durP2;ratioP2;P2;SDS_P1;SDS_P2;PMS_P1;PMS_P2;Temp;Humidity;BMP_temperature;BMP_pressure;BME280_temperature;BME280_humidity;BME280_pressure;Samples;Min_cycle;Max_cycle;Signal;HPM_P1;HPM_P2
2023/09/07 00:00:51;;;;;;;34.05;17.92;;;17.80;96.90;;;;;;5065058;28;22932;-77
2023/09/07 00:03:18;;;;;;;34.38;17.42;;;17.80;96.80;;;;;;5057130;28;20032;-77
2023/09/07 00:05:45;;;;;;;31.15;16.17;;;17.80;97.10;;;;;;5056081;28;20124;-77
2023/09/07 00:08:12;;;;;;;26.23;13.95;;;17.80;97.60;;;;;;5063499;28;20871;-77
2023/09/07 00:10:39;;;;;;;22.67;12.27;;;17.80;97.30;;;;;;5072439;28;20037;-77
2023/09/07 00:13:07;;;;;;;22.17;11.45;;;17.80;97.60;;;;;;5057914;28;20041;-77
2023/09/07 00:15:38;;;;;;;21.67;10.20;;;17.80;97.20;;;;;;5055940;28;20049;-77
2023/09/07 00:18:05;;;;;;;17.98;9.20;;;17.80;97.00;;;;;;5064354;28;20036;-77
2023/09/07 00:20:33;;;;;;;15.68;8.63;;;17.70;97.20;;;;;;5074522;28;20099;-77
2023/09/07 00:23:01;;;;;;;15.80;7.75;;;17.70;97.40;;;;;;5071312;28;21045;-77
2023/09/07 00:25:28;;;;;;;13.35;7.15;;;17.60;97.40;;;;;;5076705;28;20052;-77
2023/09/07 00:27:55;;;;;;;14.30;7.78;;;17.70;97.30;;;;;;5058420;28;20120;-77
2023/09/07 00:30:23;;;;;;;17.77;8.07;;;17.60;97.40;;;;;;5068657;28;20063;-77
2023/09/07 00:32:50;;;;;;;15.40;7.07;;;17.60;97.40;;;;;;5066835;28;20058;-78
2023/09/07 00:35:17;;;;;;;14.68;7.30;;;17.60;97.60;;;;;;5055571;28;20061;-77
2023/09/07 00:37:44;;;;;;;12.30;6.45;;;17.60;97.70;;;;;;5057448;28;20045;-77
2023/09/07 00:40:11;;;;;;;13.60;7.00;;;17.60;97.60;;;;;;5067470;28;20462;-77
2023/09/07 00:42:39;;;;;;;13.25;7.63;;;17.60;97.50;;;;;;5060436;28;20041;-78
2023/09/07 00:45:06;;;;;;;11.82;6.13;;;17.60;97.60;;;;;;5059162;28;20037;-77
2023/09/07 00:47:37;;;;;;;15.45;7.03;;;17.60;97.80;;;;;;5049504;28;20069;-78
2023/09/07 00:50:05;;;;;;;11.43;6.38;;;17.60;97.70;;;;;;5057393;28;20055;-77
2023/09/07 00:52:34;;;;;;;9.95;5.30;;;17.60;97.90;;;;;;5056876;28;20072;-77
2023/09/07 00:55:04;;;;;;;9.73;5.28;;;17.60;97.70;;;;;;5073834;28;20052;-78
2023/09/07 00:57:32;;;;;;;12.45;6.00;;;17.60;97.70;;;;;;5073955;28;20200;-77
2023/09/07 00:59:59;;;;;;;9.20;4.22;;;17.50;97.70;;;;;;5072236;28;22755;-77
2023/09/07 01:02:29;;;;;;;9.82;5.28;;;17.50;97.60;;;;;;5063482;28;21680;-77
2023/09/07 01:04:57;;;;;;;9.35;4.20;;;17.50;97.80;;;;;;5058678;28;20083;-78
2023/09/07 01:07:31;;;;;;;7.75;3.92;;;17.40;97.90;;;;;;5072323;28;20044;-77
2023/09/07 01:10:02;;;;;;;9.13;3.92;;;17.40;98.10;;;;;;5059287;28;23031;-78
2023/09/07 01:12:30;;;;;;;8.13;3.80;;;17.40;98.20;;;;;;5077833;28;20047;-77
2023/09/07 01:14:58;;;;;;;7.05;3.60;;;17.40;98.20;;;;;;5065533;28;20554;-77
2023/09/07 01:17:26;;;;;;;6.75;3.90;;;17.30;98.00;;;;;;5048498;28;20048;-77
2023/09/07 01:19:54;;;;;;;7.25;3.40;;;17.40;98.30;;;;;;5042687;28;20459;-77
2023/09/07 01:22:24;;;;;;;5.68;3.40;;;17.40;98.30;;;;;;5063741;28;20945;-77
2023/09/07 01:24:52;;;;;;;7.82;3.33;;;17.40;98.20;;;;;;5060291;28;20087;-78
2023/09/07 01:27:20;;;;;;;7.00;3.25;;;17.40;98.30;;;;;;5063792;28;20056;-78
2023/09/07 01:29:47;;;;;;;7.05;3.22;;;17.40;98.30;;;;;;5053862;28;20048;-78
2023/09/07 01:32:14;;;;;;;6.00;3.30;;;17.40;98.40;;;;;;5046615;28;20045;-77
2023/09/07 01:34:41;;;;;;;6.30;2.90;;;17.30;98.60;;;;;;5059185;28;20044;-78
2023/09/07 01:37:09;;;;;;;7.18;3.47;;;17.30;98.70;;;;;;5065267;28;20749;-78
2023/09/07 01:39:36;;;;;;;3.97;2.63;;;17.30;98.50;;;;;;5058840;28;20044;-77
2023/09/07 01:42:04;;;;;;;7.38;2.85;;;17.20;98.50;;;;;;5054130;28;20040;-78
2023/09/07 01:44:31;;;;;;;6.28;2.83;;;17.20;99.10;;;;;;5055611;28;20053;-78
2023/09/07 01:46:58;;;;;;;7.63;2.90;;;17.20;99.20;;;;;;5039906;28;20040;-77
2023/09/07 01:49:26;;;;;;;5.28;2.80;;;17.10;99.20;;;;;;5070196;28;20041;-77
2023/09/07 01:51:54;;;;;;;4.45;2.30;;;17.10;99.50;;;;;;5066028;28;20067;-77
2023/09/07 01:54:24;;;;;;;5.75;2.72;;;17.10;99.60;;;;;;5075120;28;20060;-77
2023/09/07 01:56:52;;;;;;;5.38;2.80;;;17.10;99.90;;;;;;5064478;28;20063;-77
2023/09/07 01:59:19;;;;;;;6.40;2.80;;;17.10;99.90;;;;;;5063081;28;20057;-77
2023/09/07 02:01:46;;;;;;;5.25;2.80;;;17.00;99.90;;;;;;5062653;28;20053;-78
2023/09/07 02:04:13;;;;;;;6.03;2.53;;;17.00;99.90;;;;;;5063132;28;20047;-78
2023/09/07 02:06:41;;;;;;;7.30;2.78;;;17.00;99.90;;;;;;5054470;28;20055;-78
2023/09/07 02:09:08;;;;;;;6.40;2.25;;;16.90;99.90;;;;;;5061714;28;20052;-77
2023/09/07 02:11:36;;;;;;;5.13;2.67;;;16.90;99.90;;;;;;5065024;28;20052;-77
2023/09/07 02:14:04;;;;;;;7.22;2.67;;;16.90;99.90;;;;;;5058879;28;20047;-77
2023/09/07 02:16:31;;;;;;;6.00;2.63;;;16.90;99.90;;;;;;5061190;28;20072;-77
2023/09/07 02:19:06;;;;;;;4.55;2.60;;;16.90;99.80;;;;;;5048024;28;20123;-77
2023/09/07 02:21:33;;;;;;;3.97;2.25;;;16.90;99.90;;;;;;5057722;28;20043;-78
2023/09/07 02:24:01;;;;;;;4.68;2.40;;;16.90;99.90;;;;;;5058933;28;20083;-78
2023/09/07 02:26:28;;;;;;;5.00;2.67;;;16.80;99.90;;;;;;5071625;28;20049;-78
2023/09/07 02:28:55;;;;;;;4.93;2.35;;;16.80;99.90;;;;;;5067253;28;20037;-77
2023/09/07 02:31:23;;;;;;;7.07;3.08;;;16.80;99.90;;;;;;5054496;28;20146;-78
2023/09/07 02:33:50;;;;;;;5.53;2.45;;;16.80;99.90;;;;;;5043002;28;20064;-77
2023/09/07 02:36:18;;;;;;;5.68;2.28;;;16.70;99.90;;;;;;5073786;28;20106;-77
2023/09/07 02:38:45;;;;;;;7.55;2.75;;;16.70;99.90;;;;;;5074571;28;20056;-77
2023/09/07 02:41:12;;;;;;;7.65;2.70;;;16.70;99.90;;;;;;5062473;28;20053;-77
2023/09/07 02:43:39;;;;;;;6.63;3.15;;;16.70;99.90;;;;;;5063825;28;22920;-77
2023/09/07 02:46:06;;;;;;;4.55;2.40;;;16.70;99.90;;;;;;5057348;28;20071;-77
2023/09/07 02:48:35;;;;;;;4.45;2.30;;;16.70;99.90;;;;;;5063669;28;20186;-77
2023/09/07 02:51:02;;;;;;;5.25;2.50;;;16.70;99.90;;;;;;5073676;28;20048;-77
2023/09/07 02:53:30;;;;;;;6.30;2.97;;;16.60;99.90;;;;;;5046193;28;20396;-78
2023/09/07 02:55:57;;;;;;;4.72;2.70;;;16.60;99.90;;;;;;5054746;28;20495;-77
2023/09/07 02:58:25;;;;;;;6.20;2.70;;;16.60;99.90;;;;;;5056085;28;20110;-77
2023/09/07 03:00:53;;;;;;;6.55;3.08;;;16.60;99.90;;;;;;5041388;28;20049;-77
2023/09/07 03:03:22;;;;;;;5.25;2.78;;;16.50;99.90;;;;;;5063163;28;20059;-78
2023/09/07 03:05:50;;;;;;;6.88;2.35;;;16.50;99.90;;;;;;5062516;28;20114;-77
2023/09/07 03:08:17;;;;;;;5.38;2.92;;;16.50;99.90;;;;;;5065904;28;20048;-76
2023/09/07 03:10:44;;;;;;;8.35;2.60;;;16.50;99.90;;;;;;5062376;28;20574;-76
2023/09/07 03:13:11;;;;;;;7.35;3.72;;;16.40;99.90;;;;;;5072977;28;20523;-76
2023/09/07 03:15:39;;;;;;;5.28;3.25;;;16.40;99.90;;;;;;5060500;28;20032;-76
2023/09/07 03:18:10;;;;;;;5.65;2.80;;;16.40;99.90;;;;;;5063005;28;20049;-76
2023/09/07 03:20:39;;;;;;;5.38;2.30;;;16.30;99.90;;;;;;5068456;28;20037;-76
2023/09/07 03:23:06;;;;;;;4.68;2.42;;;16.30;99.90;;;;;;5052695;28;20045;-77
2023/09/07 03:25:35;;;;;;;4.55;2.50;;;16.30;99.90;;;;;;5072254;28;20052;-76
2023/09/07 03:28:03;;;;;;;5.68;2.95;;;16.30;99.90;;;;;;5070779;28;20384;-76
2023/09/07 03:30:33;;;;;;;7.07;3.40;;;16.30;99.90;;;;;;5061831;28;20048;-76
2023/09/07 03:33:01;;;;;;;7.50;2.97;;;16.20;99.90;;;;;;5067350;28;20036;-76
2023/09/07 03:35:29;;;;;;;5.18;2.63;;;16.10;99.90;;;;;;5070954;28;20053;-76
2023/09/07 03:37:56;;;;;;;4.70;2.60;;;16.10;99.90;;;;;;5061320;28;21992;-76
2023/09/07 03:40:23;;;;;;;4.88;2.63;;;16.20;99.90;;;;;;5070464;28;20045;-76
2023/09/07 03:42:50;;;;;;;5.28;2.97;;;16.20;99.90;;;;;;5044449;28;20202;-77
2023/09/07 03:45:17;;;;;;;6.97;3.35;;;16.20;99.90;;;;;;5062044;28;20037;-76
2023/09/07 03:47:44;;;;;;;6.97;3.30;;;16.20;99.90;;;;;;5069334;28;20048;-77
2023/09/07 03:50:14;;;;;;;5.47;3.20;;;16.20;99.90;;;;;;5066427;28;20036;-76
2023/09/07 03:52:41;;;;;;;4.97;2.90;;;16.10;99.90;;;;;;5058723;28;20495;-77
2023/09/07 03:55:08;;;;;;;9.55;2.88;;;16.10;99.90;;;;;;5062147;28;20052;-76
2023/09/07 03:57:37;;;;;;;6.75;3.00;;;16.10;99.90;;;;;;5069785;28;20048;-76
2023/09/07 04:00:07;;;;;;;5.63;3.35;;;16.10;99.90;;;;;;5053635;28;20410;-77
2023/09/07 04:02:43;;;;;;;5.30;2.78;;;16.10;99.90;;;;;;5066685;28;20170;-76
2023/09/07 04:05:11;;;;;;;4.53;2.42;;;16.10;99.90;;;;;;5060579;28;20036;-76
2023/09/07 04:07:38;;;;;;;4.35;2.50;;;16.10;99.90;;;;;;5056910;28;20455;-76
2023/09/07 04:10:06;;;;;;;5.15;2.95;;;16.10;99.90;;;;;;5069654;28;20041;-76
2023/09/07 04:12:33;;;;;;;6.47;3.33;;;16.10;99.90;;;;;;5056588;28;20110;-76
2023/09/07 04:15:02;;;;;;;6.20;3.30;;;16.10;99.90;;;;;;5059896;28;20073;-76
2023/09/07 04:17:30;;;;;;;6.82;3.00;;;16.10;99.90;;;;;;5076112;28;20060;-76
2023/09/07 04:19:57;;;;;;;9.95;3.58;;;16.20;99.90;;;;;;5061108;28;20045;-77
2023/09/07 04:22:24;;;;;;;6.80;2.95;;;16.10;99.90;;;;;;5049857;28;20055;-76
2023/09/07 04:24:51;;;;;;;6.53;3.22;;;16.10;99.90;;;;;;5071398;28;20090;-76
2023/09/07 04:27:18;;;;;;;6.80;3.55;;;16.10;99.90;;;;;;5059055;28;20045;-76
2023/09/07 04:29:45;;;;;;;9.20;3.42;;;16.20;99.90;;;;;;5065473;28;20044;-76
2023/09/07 04:32:12;;;;;;;4.85;2.80;;;16.20;99.90;;;;;;5062739;28;20059;-77
2023/09/07 04:34:39;;;;;;;6.93;3.60;;;16.20;99.90;;;;;;5065469;28;20044;-77
2023/09/07 04:37:06;;;;;;;6.65;3.60;;;16.20;99.90;;;;;;5062974;28;20106;-76
2023/09/07 04:39:35;;;;;;;6.05;3.45;;;16.20;99.90;;;;;;5062011;28;20049;-77
2023/09/07 04:42:02;;;;;;;7.10;3.03;;;16.20;99.90;;;;;;5074765;28;22524;-77
2023/09/07 04:44:29;;;;;;;5.95;3.22;;;16.30;99.90;;;;;;5060115;28;20087;-76
2023/09/07 04:46:57;;;;;;;8.07;3.17;;;16.30;99.90;;;;;;5056721;28;20073;-76
2023/09/07 04:49:24;;;;;;;5.18;2.90;;;16.30;99.90;;;;;;5056220;28;20073;-76
2023/09/07 04:51:55;;;;;;;6.18;3.47;;;16.30;99.90;;;;;;5047220;28;20041;-77
2023/09/07 04:54:22;;;;;;;10.07;3.60;;;16.30;99.90;;;;;;5057925;28;20041;-76
2023/09/07 04:56:49;;;;;;;4.65;3.10;;;16.20;99.90;;;;;;5062715;28;20051;-76
2023/09/07 04:59:16;;;;;;;5.50;2.97;;;16.30;99.90;;;;;;5041512;28;20448;-77
2023/09/07 05:01:44;;;;;;;5.47;2.78;;;16.30;99.90;;;;;;5075201;28;20491;-77
2023/09/07 05:04:11;;;;;;;5.85;2.45;;;16.40;99.90;;;;;;5075853;28;20047;-78
2023/09/07 05:06:41;;;;;;;7.60;3.40;;;16.40;99.90;;;;;;5063869;28;20053;-78
2023/09/07 05:09:08;;;;;;;6.68;4.60;;;16.40;99.90;;;;;;5054948;28;20041;-79
2023/09/07 05:11:36;;;;;;;9.30;4.32;;;16.40;99.90;;;;;;5079265;28;20072;-79
2023/09/07 05:14:03;;;;;;;8.80;3.92;;;16.40;99.90;;;;;;5074880;28;20048;-79
2023/09/07 05:16:30;;;;;;;8.02;3.13;;;16.50;99.90;;;;;;5046294;28;20048;-79
2023/09/07 05:18:58;;;;;;;6.63;3.20;;;16.50;99.90;;;;;;5047881;28;20049;-79
2023/09/07 05:21:25;;;;;;;8.27;3.38;;;16.50;99.90;;;;;;5056664;28;20048;-79
2023/09/07 05:23:52;;;;;;;7.05;3.55;;;16.60;99.90;;;;;;5072833;28;20052;-79
2023/09/07 05:26:24;;;;;;;4.95;2.72;;;16.70;99.90;;;;;;5064602;28;20109;-78
2023/09/07 05:28:52;;;;;;;4.85;2.75;;;16.70;99.90;;;;;;5063559;28;20037;-79
2023/09/07 05:31:20;;;;;;;4.50;2.90;;;16.80;99.90;;;;;;5056288;28;20055;-79
2023/09/07 05:33:47;;;;;;;7.13;2.80;;;16.80;99.90;;;;;;5075611;28;20051;-79
2023/09/07 05:36:14;;;;;;;7.47;2.97;;;16.80;99.90;;;;;;5071794;28;20037;-79
2023/09/07 05:38:42;;;;;;;5.53;2.92;;;16.90;99.90;;;;;;5061906;28;22743;-80
2023/09/07 05:41:09;;;;;;;4.68;2.60;;;16.90;99.90;;;;;;5068311;28;20113;-80
2023/09/07 05:43:36;;;;;;;7.22;3.30;;;17.00;99.90;;;;;;5055365;28;20045;-79
2023/09/07 05:46:03;;;;;;;5.55;2.83;;;17.00;99.90;;;;;;5045379;28;20052;-80
2023/09/07 05:48:31;;;;;;;4.63;2.75;;;17.10;99.90;;;;;;5078022;28;20152;-79
2023/09/07 05:50:59;;;;;;;8.95;3.42;;;17.10;99.90;;;;;;5063170;28;20052;-79
2023/09/07 05:53:26;;;;;;;5.47;2.83;;;17.20;99.90;;;;;;5067263;28;20076;-79
2023/09/07 05:55:53;;;;;;;7.40;2.85;;;17.30;99.90;;;;;;5062622;28;20062;-79
2023/09/07 05:58:20;;;;;;;7.18;2.53;;;17.30;99.90;;;;;;5065052;28;20144;-78
2023/09/07 06:00:47;;;;;;;6.85;2.40;;;17.40;99.90;;;;;;5057028;28;20040;-79
2023/09/07 06:03:15;;;;;;;5.70;3.08;;;17.50;99.90;;;;;;5054885;28;20044;-79
2023/09/07 06:05:44;;;;;;;6.45;2.90;;;17.70;99.90;;;;;;5064363;28;20041;-79
2023/09/07 06:08:11;;;;;;;5.15;2.97;;;17.80;99.90;;;;;;5057840;28;20056;-78
2023/09/07 06:10:38;;;;;;;4.50;2.63;;;17.90;99.50;;;;;;5063989;28;20796;-79
2023/09/07 06:13:07;;;;;;;5.40;2.15;;;18.10;98.90;;;;;;5064053;28;20083;-79
2023/09/07 06:15:35;;;;;;;6.22;2.63;;;18.30;99.20;;;;;;5074649;28;20052;-79
2023/09/07 06:18:03;;;;;;;6.07;2.38;;;18.40;98.80;;;;;;5061777;28;20079;-79
2023/09/07 06:20:31;;;;;;;6.82;2.72;;;18.50;98.00;;;;;;5060568;28;20084;-78
2023/09/07 06:22:59;;;;;;;9.00;3.35;;;18.70;97.20;;;;;;5060241;28;20136;-77
2023/09/07 06:25:27;;;;;;;11.50;3.33;;;18.80;97.20;;;;;;5056660;28;20435;-78
2023/09/07 06:27:56;;;;;;;6.72;2.85;;;18.90;96.60;;;;;;5064522;28;20453;-78
2023/09/07 06:30:24;;;;;;;5.10;2.70;;;19.10;96.50;;;;;;5055574;28;20117;-79
2023/09/07 06:32:52;;;;;;;5.15;3.13;;;19.20;96.20;;;;;;5059788;28;20049;-78
2023/09/07 06:35:19;;;;;;;4.13;2.17;;;19.30;96.30;;;;;;5060198;28;20127;-79
2023/09/07 06:37:47;;;;;;;4.72;2.20;;;19.40;95.60;;;;;;5058727;28;20052;-78
2023/09/07 06:40:17;;;;;;;5.38;2.38;;;19.50;95.60;;;;;;5076070;28;20056;-78
2023/09/07 06:42:49;;;;;;;4.35;2.30;;;19.60;95.60;;;;;;5074462;28;20044;-78
2023/09/07 06:45:19;;;;;;;5.13;2.60;;;19.80;95.20;;;;;;5068819;28;20044;-78
2023/09/07 06:47:48;;;;;;;5.43;2.75;;;19.90;95.80;;;;;;5072424;28;20042;-78
2023/09/07 06:50:16;;;;;;;6.10;2.70;;;20.10;95.30;;;;;;5071841;28;20059;-78
2023/09/07 06:52:43;;;;;;;5.07;2.30;;;20.20;94.30;;;;;;5072988;28;20044;-78
2023/09/07 06:55:11;;;;;;;3.55;2.13;;;20.30;93.60;;;;;;5059608;28;20129;-78
2023/09/07 06:57:38;;;;;;;4.78;2.30;;;20.50;93.10;;;;;;5063727;28;20049;-80
2023/09/07 07:00:06;;;;;;;4.00;2.20;;;20.50;92.60;;;;;;5043510;28;20441;-79
2023/09/07 07:02:35;;;;;;;5.13;2.28;;;20.60;92.20;;;;;;5058556;28;20413;-77
2023/09/07 07:05:03;;;;;;;5.05;2.45;;;20.70;91.60;;;;;;5057284;28;20061;-78
2023/09/07 07:07:31;;;;;;;4.72;1.90;;;20.80;91.00;;;;;;5059587;28;20041;-79
2023/09/07 07:09:58;;;;;;;5.85;2.35;;;20.90;91.70;;;;;;5057189;28;20064;-77
2023/09/07 07:12:26;;;;;;;5.65;2.55;;;21.00;90.90;;;;;;5057677;28;20053;-79
2023/09/07 07:14:55;;;;;;;6.88;2.70;;;21.10;90.90;;;;;;5070747;28;20063;-79
2023/09/07 07:17:22;;;;;;;3.97;2.45;;;21.30;91.30;;;;;;5061473;28;20060;-78
2023/09/07 07:19:49;;;;;;;4.32;2.42;;;21.40;90.90;;;;;;5055334;28;20059;-78
2023/09/07 07:22:16;;;;;;;4.80;2.13;;;21.50;90.50;;;;;;5063452;28;20401;-78
2023/09/07 07:24:48;;;;;;;6.57;2.60;;;21.60;90.00;;;;;;5054388;28;20511;-78
2023/09/07 07:27:16;;;;;;;4.75;2.47;;;21.50;88.40;;;;;;5061851;28;20045;-78
2023/09/07 07:29:44;;;;;;;5.13;2.50;;;21.60;89.00;;;;;;5059106;28;20399;-78
2023/09/07 07:32:12;;;;;;;7.07;2.63;;;21.70;88.50;;;;;;5069466;28;20136;-77
2023/09/07 07:34:39;;;;;;;5.00;2.80;;;21.80;89.20;;;;;;5048826;28;20048;-78
2023/09/07 07:37:06;;;;;;;5.90;2.17;;;21.90;88.10;;;;;;5053069;28;20499;-78
2023/09/07 07:39:33;;;;;;;6.75;2.35;;;22.00;88.10;;;;;;5072797;28;20075;-79
2023/09/07 07:42:03;;;;;;;5.28;2.33;;;22.10;88.30;;;;;;5071476;28;20048;-77
2023/09/07 07:44:30;;;;;;;5.57;2.38;;;22.20;86.60;;;;;;5052580;28;20487;-78
2023/09/07 07:46:57;;;;;;;4.45;2.13;;;22.20;86.50;;;;;;5042068;28;20534;-76
2023/09/07 07:49:25;;;;;;;4.85;2.83;;;22.30;86.00;;;;;;5060246;28;20068;-78
2023/09/07 07:51:55;;;;;;;5.25;2.67;;;22.30;84.50;;;;;;5066461;28;20045;-80
2023/09/07 07:54:24;;;;;;;5.40;2.25;;;22.30;83.90;;;;;;5062750;28;20055;-79
2023/09/07 07:56:52;;;;;;;4.30;2.35;;;22.40;83.70;;;;;;5073998;28;22779;-78
2023/09/07 07:59:20;;;;;;;5.53;2.30;;;22.60;84.40;;;;;;5053858;28;20080;-78
2023/09/07 08:01:47;;;;;;;5.57;2.65;;;22.80;85.30;;;;;;5046665;28;20142;-77
2023/09/07 08:04:14;;;;;;;5.28;2.72;;;22.80;82.90;;;;;;5062446;28;20407;-78
2023/09/07 08:06:42;;;;;;;5.05;2.58;;;22.80;82.90;;;;;;5061465;28;20086;-77
2023/09/07 08:09:09;;;;;;;4.00;2.08;;;23.00;82.80;;;;;;5058779;28;20372;-78
2023/09/07 08:11:39;;;;;;;5.47;2.83;;;23.00;82.00;;;;;;5064916;28;20041;-79
2023/09/07 08:14:07;;;;;;;4.47;2.17;;;23.10;83.20;;;;;;5061832;28;20121;-78
2023/09/07 08:16:35;;;;;;;3.08;1.70;;;23.30;81.50;;;;;;5065215;28;20125;-78
2023/09/07 08:19:03;;;;;;;6.18;1.98;;;23.30;81.30;;;;;;5049947;28;20139;-80
2023/09/07 08:21:31;;;;;;;8.45;2.50;;;23.40;80.60;;;;;;5062531;28;20052;-79
2023/09/07 08:23:59;;;;;;;3.38;1.75;;;23.50;80.80;;;;;;5066130;28;20048;-78
2023/09/07 08:26:26;;;;;;;6.95;2.65;;;23.60;81.30;;;;;;5057371;28;20147;-77
2023/09/07 08:28:53;;;;;;;5.15;2.13;;;23.60;79.90;;;;;;5074801;28;20070;-79
2023/09/07 08:31:22;;;;;;;4.90;2.88;;;23.70;80.10;;;;;;5073182;28;20511;-78
2023/09/07 08:33:54;;;;;;;4.88;2.50;;;23.70;79.00;;;;;;5057744;28;20128;-78
2023/09/07 08:36:23;;;;;;;5.25;2.05;;;23.80;79.50;;;;;;5065603;28;20126;-78
2023/09/07 08:38:53;;;;;;;4.22;2.22;;;23.90;79.80;;;;;;5055479;28;20084;-76
2023/09/07 08:41:21;;;;;;;3.75;2.00;;;23.80;78.10;;;;;;5066001;28;20060;-77
2023/09/07 08:43:51;;;;;;;4.28;2.33;;;23.80;78.00;;;;;;5052762;28;20076;-77
2023/09/07 08:46:22;;;;;;;5.57;2.03;;;23.90;77.90;;;;;;5067600;28;20078;-78
2023/09/07 08:48:52;;;;;;;6.40;2.60;;;23.90;76.50;;;;;;5061384;28;22796;-80
2023/09/07 08:51:20;;;;;;;7.13;2.50;;;23.90;76.80;;;;;;5059513;28;20052;-81
2023/09/07 08:53:49;;;;;;;5.03;1.73;;;24.10;77.50;;;;;;5065247;28;20103;-78
2023/09/07 08:56:17;;;;;;;4.05;1.80;;;24.00;76.50;;;;;;5078660;28;20036;-78
2023/09/07 08:58:44;;;;;;;9.15;1.90;;;24.00;76.80;;;;;;5047641;28;20072;-79
2023/09/07 09:01:12;;;;;;;5.43;2.50;;;24.10;75.90;;;;;;5066001;28;20094;-82
2023/09/07 09:03:42;;;;;;;5.10;2.28;;;24.00;74.80;;;;;;5055400;28;20040;-79
2023/09/07 09:06:11;;;;;;;5.43;2.20;;;24.00;75.70;;;;;;5058746;28;20052;-80
2023/09/07 09:08:53;;;;;;;4.85;2.92;;;24.10;75.70;;;;;;5077219;28;20098;-80
2023/09/07 09:11:23;;;;;;;3.55;2.17;;;24.00;74.80;;;;;;5073253;28;20040;-80
2023/09/07 09:13:52;;;;;;;4.13;2.05;;;24.00;74.10;;;;;;5058295;28;20063;-80
2023/09/07 09:16:20;;;;;;;4.07;1.88;;;24.00;75.20;;;;;;5074958;28;20114;-79
2023/09/07 09:18:52;;;;;;;3.40;2.03;;;24.20;72.80;;;;;;5071865;28;20060;-79
2023/09/07 09:21:21;;;;;;;5.97;2.53;;;24.20;73.50;;;;;;5054228;28;20098;-81
2023/09/07 09:23:50;;;;;;;5.82;2.05;;;24.30;74.50;;;;;;5061163;28;20044;-80
2023/09/07 09:26:18;;;;;;;6.13;2.60;;;24.30;75.20;;;;;;5074201;28;20037;-79
2023/09/07 09:28:45;;;;;;;4.68;1.88;;;24.30;75.00;;;;;;5063105;28;20049;-79
2023/09/07 09:31:14;;;;;;;4.95;2.50;;;24.40;75.20;;;;;;5060519;28;20055;-81
2023/09/07 09:33:42;;;;;;;5.75;2.17;;;24.30;75.20;;;;;;5052621;28;20843;-78
2023/09/07 09:36:10;;;;;;;4.57;2.10;;;24.40;74.70;;;;;;5044124;28;22737;-81
2023/09/07 09:38:37;;;;;;;4.38;2.00;;;24.50;73.80;;;;;;5073719;28;20056;-78
2023/09/07 09:41:05;;;;;;;4.60;2.38;;;24.50;74.60;;;;;;5061680;28;20136;-79
2023/09/07 09:43:33;;;;;;;6.57;2.33;;;24.50;73.40;;;;;;5058444;28;20041;-77
2023/09/07 09:46:00;;;;;;;4.32;2.33;;;24.50;73.00;;;;;;5062487;28;20029;-81
2023/09/07 09:48:28;;;;;;;7.30;2.40;;;24.40;73.80;;;;;;5029082;28;20402;-82
2023/09/07 09:50:56;;;;;;;3.75;2.22;;;24.50;73.80;;;;;;5058573;28;20132;-82
2023/09/07 09:53:27;;;;;;;5.75;2.20;;;24.40;73.30;;;;;;5063236;28;20045;-80
2023/09/07 09:55:54;;;;;;;3.75;2.00;;;24.40;72.80;;;;;;5058406;28;20404;-80
2023/09/07 09:58:22;;;;;;;5.13;1.80;;;24.50;73.40;;;;;;5057064;28;20045;-79
2023/09/07 10:00:55;;;;;;;4.78;2.60;;;24.60;73.40;;;;;;5061066;28;20053;-78
2023/09/07 10:03:23;;;;;;;5.47;2.25;;;24.80;72.60;;;;;;5053864;28;20047;-79
2023/09/07 10:05:50;;;;;;;3.58;2.10;;;24.70;71.70;;;;;;5074590;28;20037;-80
2023/09/07 10:08:19;;;;;;;4.88;1.85;;;24.80;72.90;;;;;;5062204;28;21064;-82
2023/09/07 10:10:49;;;;;;;4.30;2.10;;;25.00;72.60;;;;;;5074502;28;20045;-77
2023/09/07 10:13:29;;;;;;;3.83;1.50;;;25.00;72.40;;;;;;5045872;28;20060;-80
2023/09/07 10:16:08;;;;;;;3.85;2.25;;;24.90;70.90;;;;;;5068593;28;20044;-79
2023/09/07 10:18:39;;;;;;;4.50;1.60;;;25.10;72.10;;;;;;5053567;28;20767;-80
2023/09/07 10:21:06;;;;;;;3.42;1.52;;;25.30;71.30;;;;;;5060258;28;20045;-80
2023/09/07 10:23:40;;;;;;;4.38;1.80;;;25.20;68.60;;;;;;5060309;28;20045;-79
2023/09/07 10:26:15;;;;;;;3.60;2.05;;;25.10;68.70;;;;;;5040669;28;20048;-81
2023/09/07 10:28:45;;;;;;;3.15;1.58;;;25.10;69.10;;;;;;5065708;28;20136;-81
2023/09/07 10:31:18;;;;;;;3.25;1.58;;;25.10;67.70;;;;;;5075802;28;20056;-81
2023/09/07 10:33:46;;;;;;;3.60;1.48;;;25.10;67.10;;;;;;5076147;28;20582;-82
2023/09/07 10:36:27;;;;;;;2.70;1.30;;;25.10;67.80;;;;;;5070986;28;20053;-79
2023/09/07 10:38:56;;;;;;;3.67;1.70;;;25.20;68.40;;;;;;5064385;28;20122;-79
2023/09/07 10:41:23;;;;;;;4.50;1.20;;;25.20;69.40;;;;;;5057126;28;20044;-78
2023/09/07 10:43:53;;;;;;;6.20;1.77;;;25.20;68.20;;;;;;5059851;28;20450;-79
2023/09/07 10:46:22;;;;;;;5.40;1.70;;;25.20;67.00;;;;;;5046290;28;20483;-80
2023/09/07 10:48:54;;;;;;;4.47;1.42;;;25.20;67.20;;;;;;5071105;28;20052;-80
2023/09/07 10:51:21;;;;;;;3.25;2.17;;;25.30;68.90;;;;;;5074345;28;20045;-81
2023/09/07 10:53:49;;;;;;;4.05;1.33;;;25.50;69.50;;;;;;5057810;28;20049;-82
2023/09/07 10:56:16;;;;;;;3.40;1.80;;;25.60;69.40;;;;;;5056395;28;20545;-81
2023/09/07 10:58:45;;;;;;;3.70;1.88;;;25.60;67.70;;;;;;5051332;28;20064;-78
2023/09/07 11:01:12;;;;;;;5.97;2.00;;;25.50;66.90;;;;;;5061317;28;20048;-80
2023/09/07 11:03:43;;;;;;;4.30;1.63;;;25.40;66.60;;;;;;5062250;28;20056;-79
2023/09/07 11:06:19;;;;;;;3.35;1.70;;;25.40;66.20;;;;;;5062499;28;20053;-78
2023/09/07 11:08:46;;;;;;;3.38;1.50;;;25.50;66.30;;;;;;5070233;28;20051;-80
2023/09/07 11:11:14;;;;;;;2.92;1.73;;;25.50;67.20;;;;;;5053616;28;20037;-80
2023/09/07 11:13:41;;;;;;;2.75;1.40;;;25.50;67.30;;;;;;5055870;28;20476;-80
2023/09/07 11:16:09;;;;;;;2.92;1.77;;;25.40;65.40;;;;;;5063726;28;20079;-81
2023/09/07 11:18:37;;;;;;;2.70;1.45;;;25.40;67.00;;;;;;5055694;28;20495;-80
2023/09/07 11:21:04;;;;;;;4.75;2.05;;;25.40;65.70;;;;;;5061823;28;20049;-80
2023/09/07 11:23:37;;;;;;;3.03;1.67;;;25.40;65.30;;;;;;5056518;28;20049;-78
2023/09/07 11:26:08;;;;;;;3.55;1.70;;;25.50;65.50;;;;;;5052040;28;20557;-80
2023/09/07 11:28:35;;;;;;;3.92;2.08;;;25.40;64.90;;;;;;5059442;28;20056;-79
2023/09/07 11:31:02;;;;;;;3.20;1.60;;;25.40;65.80;;;;;;5044899;28;20053;-79
2023/09/07 11:33:33;;;;;;;4.88;1.83;;;25.50;66.10;;;;;;5059838;28;20057;-79
2023/09/07 11:36:00;;;;;;;2.85;1.40;;;25.50;65.10;;;;;;5076940;28;20373;-78
2023/09/07 11:38:34;;;;;;;3.05;1.52;;;25.60;65.40;;;;;;5081174;28;20060;-79
2023/09/07 11:41:01;;;;;;;3.17;1.35;;;25.70;66.30;;;;;;5065811;28;20048;-80
2023/09/07 11:43:29;;;;;;;5.57;2.00;;;25.80;66.40;;;;;;5038562;28;20595;-81
2023/09/07 11:45:57;;;;;;;2.75;1.50;;;25.70;65.90;;;;;;5063813;28;20048;-81
2023/09/07 11:48:24;;;;;;;3.45;1.80;;;25.80;67.00;;;;;;5063220;28;20049;-80
2023/09/07 11:50:51;;;;;;;3.95;1.70;;;25.80;65.80;;;;;;5065897;28;20479;-81
2023/09/07 11:53:18;;;;;;;3.13;1.70;;;25.90;65.40;;;;;;5045636;28;20542;-80
2023/09/07 11:55:45;;;;;;;2.47;1.48;;;25.80;63.80;;;;;;5075805;28;20049;-79
2023/09/07 11:58:12;;;;;;;4.45;1.92;;;25.70;63.50;;;;;;5050109;28;20053;-79
2023/09/07 12:00:41;;;;;;;3.22;1.20;;;25.70;63.70;;;;;;5057737;28;20131;-79
2023/09/07 12:03:08;;;;;;;4.82;1.90;;;25.80;64.10;;;;;;5065502;28;20434;-82
2023/09/07 12:05:36;;;;;;;4.03;1.50;;;25.80;63.20;;;;;;5047753;28;20128;-81
2023/09/07 12:08:05;;;;;;;3.05;1.85;;;25.90;64.10;;;;;;5065725;28;20052;-79
2023/09/07 12:10:33;;;;;;;3.30;1.50;;;25.90;63.50;;;;;;5065073;28;20496;-83
2023/09/07 12:13:00;;;;;;;2.45;1.67;;;26.00;64.60;;;;;;5063562;28;20049;-81
2023/09/07 12:15:27;;;;;;;4.00;1.70;;;25.90;63.10;;;;;;5056335;28;20053;-82
2023/09/07 12:17:55;;;;;;;3.20;1.48;;;25.90;63.90;;;;;;5070000;28;20208;-80
2023/09/07 12:20:23;;;;;;;3.13;1.75;;;26.00;64.40;;;;;;5065345;28;20067;-79
2023/09/07 12:22:50;;;;;;;6.47;2.05;;;26.10;64.20;;;;;;5057609;28;20033;-81
2023/09/07 12:25:17;;;;;;;6.00;2.08;;;26.10;64.90;;;;;;5029334;28;20038;-79
2023/09/07 12:27:46;;;;;;;2.42;1.50;;;26.10;64.90;;;;;;5064762;28;20040;-82
2023/09/07 12:30:20;;;;;;;3.92;1.55;;;26.00;62.50;;;;;;5060028;28;20076;-83
2023/09/07 12:32:48;;;;;;;3.63;1.63;;;26.00;62.50;;;;;;5058231;28;20045;-78
2023/09/07 12:35:15;;;;;;;4.50;1.63;;;26.00;63.50;;;;;;5061829;28;20059;-79
2023/09/07 12:37:43;;;;;;;4.32;1.25;;;26.10;61.50;;;;;;5057157;28;20047;-79
2023/09/07 12:40:12;;;;;;;3.08;1.70;;;26.10;62.20;;;;;;5056768;28;20051;-82
2023/09/07 12:42:40;;;;;;;3.80;1.60;;;26.20;60.90;;;;;;5040785;28;20109;-79
2023/09/07 12:45:12;;;;;;;3.05;1.58;;;26.10;61.50;;;;;;5055728;28;20119;-81
2023/09/07 12:47:40;;;;;;;3.63;1.77;;;26.10;61.70;;;;;;5075462;28;20061;-79
2023/09/07 12:50:07;;;;;;;3.60;1.65;;;26.10;62.60;;;;;;5069468;28;20049;-81